createdAt,value
2018-07-04T00:02:27.623Z,20.4
2018-07-04T00:07:27.724Z,20.1
2018-07-04T00:12:27.888Z,20.0
2018-07-04T00:17:28.319Z,20.0
2018-07-04T00:22:27.889Z,20.0
2018-07-04T00:27:27.442Z,19.9
2018-07-04T00:32:27.685Z,19.8
2018-07-04T00:37:27.282Z,19.8
2018-07-04T00:42:27.409Z,19.8
2018-07-04T00:47:27.822Z,19.7
2018-07-04T00:52:27.291Z,19.7
2018-07-04T00:57:27.846Z,19.6
2018-07-04T01:02:27.652Z,19.6
2018-07-04T01:07:27.095Z,19.5
2018-07-04T01:12:27.276Z,19.4
2018-07-04T01:17:27.947Z,19.3
2018-07-04T01:22:28.182Z,19.2
2018-07-04T01:27:27.581Z,19.0
2018-07-04T01:32:28.102Z,19.0
2018-07-04T01:37:28.297Z,18.9
2018-07-04T01:42:27.886Z,18.9
2018-07-04T01:47:27.937Z,18.9
2018-07-04T01:52:26.709Z,18.8
2018-07-04T01:57:28.247Z,18.8
2018-07-04T02:02:27.781Z,18.9
2018-07-04T02:07:27.268Z,18.8
2018-07-04T02:12:28.059Z,18.6
2018-07-04T02:17:28.691Z,18.5
2018-07-04T02:22:27.704Z,18.4
2018-07-04T02:27:27.480Z,18.5
2018-07-04T02:32:27.402Z,18.4
2018-07-04T02:37:27.951Z,18.4
2018-07-04T02:42:27.517Z,18.3
2018-07-04T02:47:29.051Z,18.3
2018-07-04T02:52:27.848Z,18.2
2018-07-04T02:57:27.627Z,18.1
2018-07-04T03:02:27.771Z,18.1
2018-07-04T03:07:28.128Z,18.1
2018-07-04T03:12:27.183Z,18.1
2018-07-04T03:17:27.776Z,18.1
2018-07-04T03:22:27.684Z,18.1
2018-07-04T03:27:27.972Z,18.0
2018-07-04T03:32:27.648Z,17.9
2018-07-04T03:37:28.195Z,18.0
2018-07-04T03:42:28.373Z,17.9
2018-07-04T03:47:28.680Z,17.9
2018-07-04T03:52:27.289Z,17.8
2018-07-04T03:57:27.677Z,17.8
2018-07-04T04:02:27.881Z,17.9
2018-07-04T04:07:27.889Z,17.9
2018-07-04T04:12:28.457Z,18.2
2018-07-04T04:17:28.692Z,18.1
2018-07-04T04:22:27.831Z,18.4
2018-07-04T04:27:27.668Z,18.9
2018-07-04T04:32:27.894Z,19.2
2018-07-04T04:37:27.697Z,19.5
2018-07-04T04:42:28.224Z,19.5
2018-07-04T04:47:27.983Z,19.6
2018-07-04T04:52:27.625Z,19.6
2018-07-04T04:57:27.818Z,19.8
2018-07-04T05:02:27.925Z,19.9
2018-07-04T05:07:29.021Z,20.2
2018-07-04T05:12:28.813Z,20.3
2018-07-04T05:17:28.117Z,20.4
2018-07-04T05:22:29.272Z,20.5
2018-07-04T05:27:27.858Z,20.6
2018-07-04T05:32:28.746Z,20.6
2018-07-04T05:37:27.918Z,20.7
2018-07-04T05:42:28.003Z,20.7
2018-07-04T05:47:29.051Z,20.8
2018-07-04T05:52:27.204Z,21.1
2018-07-04T05:57:27.745Z,21.4
2018-07-04T06:02:29.884Z,22.7
2018-07-04T06:07:28.040Z,22.7
2018-07-04T06:12:28.225Z,23.7
2018-07-04T06:17:28.781Z,23.7
2018-07-04T06:22:28.086Z,23.8
2018-07-04T06:27:27.854Z,24.0
2018-07-04T06:32:28.657Z,24.0
2018-07-04T06:37:27.918Z,24.0
2018-07-04T06:42:27.279Z,24.0
2018-07-04T06:47:28.561Z,24.1
2018-07-04T06:52:28.187Z,24.4
2018-07-04T06:57:28.722Z,24.7
2018-07-04T07:02:27.587Z,25.0
2018-07-04T07:07:28.620Z,25.4
2018-07-04T07:12:27.824Z,25.4
2018-07-04T07:17:28.617Z,25.6
2018-07-04T07:22:28.298Z,25.8
2018-07-04T07:27:27.352Z,26.0
2018-07-04T07:32:27.509Z,26.2
2018-07-04T07:37:28.527Z,26.6
2018-07-04T07:42:28.605Z,26.9
2018-07-04T07:47:29.020Z,27.7
2018-07-04T07:52:28.308Z,27.7
2018-07-04T07:57:28.421Z,28.1
2018-07-04T08:02:27.575Z,28.7
2018-07-04T08:07:28.678Z,29.3
2018-07-04T08:12:28.502Z,29.6
2018-07-04T08:17:28.804Z,30.0
2018-07-04T08:22:28.278Z,30.1
2018-07-04T08:27:28.662Z,30.1
2018-07-04T08:32:28.731Z,30.5
2018-07-04T08:37:28.119Z,31.1
2018-07-04T08:42:27.933Z,30.9
2018-07-04T08:47:28.560Z,30.9
2018-07-04T08:52:28.348Z,30.8
2018-07-04T08:57:27.682Z,30.5
2018-07-04T09:02:28.697Z,30.2
2018-07-04T09:07:28.080Z,29.8
2018-07-04T09:12:28.542Z,29.0
2018-07-04T09:17:27.892Z,28.2
2018-07-04T09:22:28.328Z,27.6
2018-07-04T09:27:28.331Z,27.0
2018-07-04T09:32:28.250Z,26.4
2018-07-04T09:37:27.747Z,26.0
2018-07-04T09:42:27.906Z,25.6
2018-07-04T09:47:28.480Z,25.1
2018-07-04T09:52:28.128Z,24.6
2018-07-04T09:57:28.610Z,24.0
2018-07-04T10:02:27.909Z,23.8
2018-07-04T10:07:28.152Z,23.8
2018-07-04T10:12:27.318Z,23.8
2018-07-04T10:17:28.036Z,23.9
2018-07-04T10:22:27.305Z,24.2
2018-07-04T10:27:28.912Z,24.4
2018-07-04T10:32:28.522Z,24.6
2018-07-04T10:37:28.030Z,24.9
2018-07-04T10:42:28.356Z,25.1
2018-07-04T10:47:27.606Z,26.3
2018-07-04T10:52:28.211Z,26.3
2018-07-04T10:57:27.256Z,26.8
2018-07-04T11:02:28.023Z,28.0
2018-07-04T11:07:28.353Z,27.9
2018-07-04T11:12:28.528Z,28.3
2018-07-04T11:17:27.980Z,28.6
2018-07-04T11:22:27.810Z,28.8
2018-07-04T11:27:27.486Z,28.9
2018-07-04T11:32:28.477Z,29.1
2018-07-04T11:37:28.263Z,29.2
2018-07-04T11:42:28.043Z,29.3
2018-07-04T11:47:27.636Z,29.5
2018-07-04T11:52:28.574Z,29.7
2018-07-04T11:57:28.353Z,30.1
2018-07-04T12:02:27.880Z,30.7
2018-07-04T12:07:28.608Z,31.2
2018-07-04T12:12:28.062Z,31.7
2018-07-04T12:17:27.847Z,32.3
2018-07-04T12:22:28.251Z,33.0
2018-07-04T12:27:28.180Z,33.4
2018-07-04T12:32:28.335Z,34.0
2018-07-04T12:37:28.724Z,33.9
2018-07-04T12:42:28.531Z,34.1
2018-07-04T12:47:28.364Z,34.7
2018-07-04T12:52:27.766Z,35.4
2018-07-04T12:57:30.212Z,35.7
2018-07-04T13:02:28.268Z,35.7
2018-07-04T13:07:30.478Z,35.6
2018-07-04T13:12:28.333Z,35.4
2018-07-04T13:17:28.334Z,35.2
2018-07-04T13:22:27.871Z,35.2
2018-07-04T13:27:28.026Z,34.8
2018-07-04T13:32:29.284Z,34.1
2018-07-04T13:37:28.213Z,33.3
2018-07-04T13:42:28.558Z,32.6
2018-07-04T13:47:28.115Z,32.1
2018-07-04T13:52:28.430Z,31.6
2018-07-04T13:57:27.829Z,30.2
2018-07-04T14:02:27.291Z,29.6
2018-07-04T14:07:28.556Z,29.6
2018-07-04T14:12:28.053Z,29.2
2018-07-04T14:17:28.103Z,28.7
2018-07-04T14:22:27.575Z,28.5
2018-07-04T14:27:28.330Z,28.2
2018-07-04T14:32:28.438Z,28.4
2018-07-04T14:37:27.788Z,28.4
2018-07-04T14:42:28.540Z,28.9
2018-07-04T14:47:28.076Z,28.9
2018-07-04T14:52:29.006Z,29.3
2018-07-04T14:57:28.338Z,31.3
2018-07-04T15:02:27.697Z,31.3
2018-07-04T15:07:28.854Z,32.1
2018-07-04T15:12:27.364Z,36.7
2018-07-04T15:17:28.607Z,39.0
2018-07-04T15:22:27.583Z,36.8
2018-07-04T15:27:28.270Z,42.5
2018-07-04T15:32:27.720Z,46.1
2018-07-04T15:37:28.158Z,48.3
2018-07-04T15:42:27.210Z,50.0
2018-07-04T15:47:28.210Z,51.8
2018-07-04T15:52:28.065Z,53.1
2018-07-04T15:57:28.395Z,51.3
2018-07-04T16:02:27.318Z,48.7
2018-07-04T16:07:28.154Z,49.8
2018-07-04T16:12:27.610Z,46.4
2018-07-04T16:17:28.005Z,47.5
2018-07-04T16:22:27.556Z,51.4
2018-07-04T16:27:27.574Z,52.7
2018-07-04T16:32:27.674Z,53.5
2018-07-04T16:37:28.243Z,53.0
2018-07-04T16:42:28.037Z,54.0
2018-07-04T16:47:28.095Z,53.7
2018-07-04T16:52:27.657Z,53.9
2018-07-04T16:57:28.887Z,51.0
2018-07-04T17:02:28.219Z,45.4
2018-07-04T17:07:28.637Z,41.9
2018-07-04T17:12:27.796Z,40.6
2018-07-04T17:17:28.417Z,39.3
2018-07-04T17:22:27.650Z,38.2
2018-07-04T17:27:27.546Z,37.5
2018-07-04T17:32:27.407Z,41.9
2018-07-04T17:37:28.063Z,46.5
2018-07-04T17:42:28.502Z,43.3
2018-07-04T17:47:27.962Z,43.1
2018-07-04T17:52:27.253Z,41.7
2018-07-04T17:57:28.300Z,36.2
2018-07-04T18:02:29.104Z,34.2
2018-07-04T18:07:27.639Z,34.1
2018-07-04T18:12:28.425Z,32.7
2018-07-04T18:17:29.003Z,31.3
2018-07-04T18:22:28.250Z,30.6
2018-07-04T18:27:28.571Z,30.1
2018-07-04T18:32:27.886Z,29.4
2018-07-04T18:37:27.826Z,28.4
2018-07-04T18:42:27.391Z,28.3
2018-07-04T18:47:27.499Z,28.2
2018-07-04T18:52:28.357Z,27.5
2018-07-04T18:57:27.907Z,26.3
2018-07-04T19:02:28.920Z,26.2
2018-07-04T19:07:28.089Z,26.0
2018-07-04T19:12:27.404Z,25.4
2018-07-04T19:17:28.120Z,25.3
2018-07-04T19:22:27.727Z,25.1
2018-07-04T19:27:28.178Z,24.4
2018-07-04T19:32:28.688Z,24.3
2018-07-04T19:37:28.277Z,23.9
2018-07-04T19:42:28.283Z,23.8
2018-07-04T19:47:28.009Z,23.7
2018-07-04T19:52:27.823Z,23.4
2018-07-04T19:57:29.166Z,23.4
2018-07-04T20:02:27.825Z,23.3
2018-07-04T20:07:28.142Z,23.1
2018-07-04T20:12:27.244Z,23.0
2018-07-04T20:17:27.772Z,22.8
2018-07-04T20:22:27.761Z,22.1
2018-07-04T20:27:28.360Z,22.1
2018-07-04T20:32:27.031Z,21.8
2018-07-04T20:37:27.490Z,21.4
2018-07-04T20:42:29.001Z,21.4
2018-07-04T20:47:27.597Z,21.2
2018-07-04T20:52:27.447Z,21.1
2018-07-04T20:57:28.275Z,20.9
2018-07-04T21:02:27.221Z,20.8
2018-07-04T21:07:29.016Z,20.7
2018-07-04T21:12:27.478Z,20.6
2018-07-04T21:17:28.244Z,20.5
2018-07-04T21:22:27.895Z,20.5
2018-07-04T21:27:27.547Z,20.5
2018-07-04T21:32:27.194Z,20.4
2018-07-04T21:37:27.989Z,20.4
2018-07-04T21:42:27.277Z,20.4
2018-07-04T21:47:27.968Z,20.4
2018-07-04T21:52:28.256Z,20.3
2018-07-04T21:57:27.240Z,20.1
2018-07-04T22:02:27.111Z,20.0
2018-07-04T22:07:28.054Z,19.9
2018-07-04T22:12:27.290Z,20.0
2018-07-04T22:23:05.052Z,20.0
2018-07-04T22:28:04.509Z,19.9
2018-07-04T22:33:04.474Z,19.9
2018-07-04T22:38:04.096Z,19.7
2018-07-04T22:43:03.868Z,19.7
2018-07-04T22:48:05.378Z,19.7
2018-07-04T22:53:03.746Z,19.7
2018-07-04T22:58:03.403Z,19.7
2018-07-04T23:03:04.250Z,19.6
2018-07-04T23:08:03.838Z,19.6
2018-07-04T23:12:26.872Z,19.6
2018-07-04T23:17:27.994Z,19.6
2018-07-04T23:22:27.742Z,19.6
2018-07-04T23:27:27.701Z,19.7
2018-07-04T23:32:27.950Z,19.8
2018-07-04T23:37:27.242Z,19.7
2018-07-04T23:42:28.201Z,19.4
2018-07-04T23:47:27.380Z,19.2
2018-07-04T23:52:27.107Z,19.1
2018-07-04T23:57:26.996Z,19.1
